Terminal Aerodrome Forecast
Issued by NWS Grand Rapids, MI

Home | Current Version | Previous Version | Text Only | Print | Product List | Glossary On
Versions: 1 2 3 4 5 6 7 8 9 10 11 12 13 14 15 16
310
FTUS43 KGRR 231423 AAC
TAFGRR
TAF AMD
KGRR 231423Z 2314/2412 03006KT 5SM -RA BR OVC006
     FM231600 07007KT 2SM -RA BR OVC006
     FM231800 08008KT 1SM +SHRA BR OVC003
     FM240000 30015G23KT 2SM SHRA BR OVC008 WS020/34030KT=

USA.gov is the U.S. government's official web portal to all federal, state and local government web resources and services.